sensor_id;sensor_type;location;lat;lon;timestamp;temperature;humidity
44565;DHT22;30275;51.822;-0.326;2023-03-03T00:00:44;4.50;99.90
44565;DHT22;30275;51.822;-0.326;2023-03-03T00:03:13;4.40;99.90
44565;DHT22;30275;51.822;-0.326;2023-03-03T00:05:40;4.40;99.90
44565;DHT22;30275;51.822;-0.326;2023-03-03T00:08:07;4.30;99.90
44565;DHT22;30275;51.822;-0.326;2023-03-03T00:10:33;4.30;99.90
44565;DHT22;30275;51.822;-0.326;2023-03-03T00:12:59;4.20;99.90
44565;DHT22;30275;51.822;-0.326;2023-03-03T00:15:26;4.20;99.90
44565;DHT22;30275;51.822;-0.326;2023-03-03T00:17:52;4.20;99.90
44565;DHT22;30275;51.822;-0.326;2023-03-03T00:23:19;4.20;99.90
44565;DHT22;30275;51.822;-0.326;2023-03-03T00:25:50;4.10;99.90
44565;DHT22;30275;51.822;-0.326;2023-03-03T00:28:44;4.20;99.90
44565;DHT22;30275;51.822;-0.326;2023-03-03T00:31:19;4.20;99.90
44565;DHT22;30275;51.822;-0.326;2023-03-03T00:33:54;4.20;99.90
44565;DHT22;30275;51.822;-0.326;2023-03-03T00:39:10;4.10;99.90
44565;DHT22;30275;51.822;-0.326;2023-03-03T00:41:38;4.20;99.90
44565;DHT22;30275;51.822;-0.326;2023-03-03T00:46:50;4.20;99.90
44565;DHT22;30275;51.822;-0.326;2023-03-03T00:49:23;4.20;99.90
44565;DHT22;30275;51.822;-0.326;2023-03-03T00:51:51;4.20;99.90
44565;DHT22;30275;51.822;-0.326;2023-03-03T00:54:17;4.20;99.90
44565;DHT22;30275;51.822;-0.326;2023-03-03T00:56:42;4.20;99.90
44565;DHT22;30275;51.822;-0.326;2023-03-03T00:59:09;4.20;99.90
44565;DHT22;30275;51.822;-0.326;2023-03-03T01:01:34;4.30;99.90
44565;DHT22;30275;51.822;-0.326;2023-03-03T01:04:00;4.30;99.90
44565;DHT22;30275;51.822;-0.326;2023-03-03T01:06:25;4.30;99.90
44565;DHT22;30275;51.822;-0.326;2023-03-03T01:08:51;4.30;99.90
44565;DHT22;30275;51.822;-0.326;2023-03-03T01:11:21;4.30;99.90
44565;DHT22;30275;51.822;-0.326;2023-03-03T01:13:48;4.30;99.90
44565;DHT22;30275;51.822;-0.326;2023-03-03T01:16:15;4.30;99.90
44565;DHT22;30275;51.822;-0.326;2023-03-03T01:18:41;4.30;99.90
44565;DHT22;30275;51.822;-0.326;2023-03-03T01:21:07;4.20;99.90
44565;DHT22;30275;51.822;-0.326;2023-03-03T01:23:33;4.30;99.90
44565;DHT22;30275;51.822;-0.326;2023-03-03T01:25:59;4.20;99.90
44565;DHT22;30275;51.822;-0.326;2023-03-03T01:28:24;4.30;99.90
44565;DHT22;30275;51.822;-0.326;2023-03-03T01:30:50;4.30;99.90
44565;DHT22;30275;51.822;-0.326;2023-03-03T01:33:16;4.20;99.90
44565;DHT22;30275;51.822;-0.326;2023-03-03T01:35:47;4.30;99.90
44565;DHT22;30275;51.822;-0.326;2023-03-03T01:38:14;4.30;99.90
44565;DHT22;30275;51.822;-0.326;2023-03-03T01:40:40;4.30;99.90
44565;DHT22;30275;51.822;-0.326;2023-03-03T01:43:06;4.30;99.90
44565;DHT22;30275;51.822;-0.326;2023-03-03T01:48:33;4.30;99.90
44565;DHT22;30275;51.822;-0.326;2023-03-03T01:51:27;4.20;99.90
44565;DHT22;30275;51.822;-0.326;2023-03-03T01:54:24;4.20;99.90
44565;DHT22;30275;51.822;-0.326;2023-03-03T01:56:50;4.30;99.90
44565;DHT22;30275;51.822;-0.326;2023-03-03T01:59:25;4.30;99.90
44565;DHT22;30275;51.822;-0.326;2023-03-03T02:01:52;4.30;99.90
44565;DHT22;30275;51.822;-0.326;2023-03-03T02:04:18;4.30;99.90
44565;DHT22;30275;51.822;-0.326;2023-03-03T02:06:49;4.30;99.90
44565;DHT22;30275;51.822;-0.326;2023-03-03T02:12:14;4.40;99.90
44565;DHT22;30275;51.822;-0.326;2023-03-03T02:14:40;4.30;99.90
44565;DHT22;30275;51.822;-0.326;2023-03-03T02:17:06;4.30;99.90
44565;DHT22;30275;51.822;-0.326;2023-03-03T02:19:44;4.30;99.90
44565;DHT22;30275;51.822;-0.326;2023-03-03T02:22:13;4.20;99.90
44565;DHT22;30275;51.822;-0.326;2023-03-03T02:24:52;4.20;99.90
44565;DHT22;30275;51.822;-0.326;2023-03-03T02:27:20;4.20;99.90
44565;DHT22;30275;51.822;-0.326;2023-03-03T02:29:46;4.20;99.90
44565;DHT22;30275;51.822;-0.326;2023-03-03T02:32:11;4.20;99.90
44565;DHT22;30275;51.822;-0.326;2023-03-03T02:34:48;4.20;99.90
44565;DHT22;30275;51.822;-0.326;2023-03-03T02:37:15;4.20;99.90
44565;DHT22;30275;51.822;-0.326;2023-03-03T02:39:40;4.20;99.90
44565;DHT22;30275;51.822;-0.326;2023-03-03T02:44:39;4.10;99.90
44565;DHT22;30275;51.822;-0.326;2023-03-03T02:47:05;4.10;99.90
44565;DHT22;30275;51.822;-0.326;2023-03-03T02:49:33;4.10;99.90
44565;DHT22;30275;51.822;-0.326;2023-03-03T02:52:00;4.00;99.90
44565;DHT22;30275;51.822;-0.326;2023-03-03T02:54:27;3.90;99.90
44565;DHT22;30275;51.822;-0.326;2023-03-03T02:56:55;4.00;99.90
44565;DHT22;30275;51.822;-0.326;2023-03-03T02:59:21;3.90;99.90
44565;DHT22;30275;51.822;-0.326;2023-03-03T03:01:46;4.00;99.90
44565;DHT22;30275;51.822;-0.326;2023-03-03T03:04:15;3.90;99.90
44565;DHT22;30275;51.822;-0.326;2023-03-03T03:06:42;4.10;99.90
44565;DHT22;30275;51.822;-0.326;2023-03-03T03:09:08;4.10;99.90
44565;DHT22;30275;51.822;-0.326;2023-03-03T03:11:34;4.10;99.90
44565;DHT22;30275;51.822;-0.326;2023-03-03T03:14:02;4.10;99.90
44565;DHT22;30275;51.822;-0.326;2023-03-03T03:16:27;4.00;99.90
44565;DHT22;30275;51.822;-0.326;2023-03-03T03:18:53;4.10;99.90
44565;DHT22;30275;51.822;-0.326;2023-03-03T03:21:19;4.10;99.90
44565;DHT22;30275;51.822;-0.326;2023-03-03T03:23:44;4.10;99.90
44565;DHT22;30275;51.822;-0.326;2023-03-03T03:26:10;4.00;99.90
44565;DHT22;30275;51.822;-0.326;2023-03-03T03:28:36;4.00;99.90
44565;DHT22;30275;51.822;-0.326;2023-03-03T03:31:02;4.00;99.90
44565;DHT22;30275;51.822;-0.326;2023-03-03T03:33:28;4.00;99.90
44565;DHT22;30275;51.822;-0.326;2023-03-03T03:35:55;4.00;99.90
44565;DHT22;30275;51.822;-0.326;2023-03-03T03:38:22;4.00;99.90
44565;DHT22;30275;51.822;-0.326;2023-03-03T03:40:47;4.10;99.90
44565;DHT22;30275;51.822;-0.326;2023-03-03T03:43:13;4.00;99.90
44565;DHT22;30275;51.822;-0.326;2023-03-03T03:45:41;4.00;99.90
44565;DHT22;30275;51.822;-0.326;2023-03-03T03:48:07;3.90;99.90
44565;DHT22;30275;51.822;-0.326;2023-03-03T03:50:33;3.90;99.90
44565;DHT22;30275;51.822;-0.326;2023-03-03T03:52:58;3.90;99.90
44565;DHT22;30275;51.822;-0.326;2023-03-03T03:55:24;3.90;99.90
44565;DHT22;30275;51.822;-0.326;2023-03-03T03:57:50;4.00;99.90
44565;DHT22;30275;51.822;-0.326;2023-03-03T04:00:16;4.10;99.90
44565;DHT22;30275;51.822;-0.326;2023-03-03T04:02:41;4.10;99.90
44565;DHT22;30275;51.822;-0.326;2023-03-03T04:05:07;4.00;99.90
44565;DHT22;30275;51.822;-0.326;2023-03-03T04:07:33;4.10;99.90
44565;DHT22;30275;51.822;-0.326;2023-03-03T04:09:58;4.20;99.90
44565;DHT22;30275;51.822;-0.326;2023-03-03T04:12:24;4.20;99.90
44565;DHT22;30275;51.822;-0.326;2023-03-03T04:14:50;4.20;99.90
44565;DHT22;30275;51.822;-0.326;2023-03-03T04:17:21;4.30;99.90
44565;DHT22;30275;51.822;-0.326;2023-03-03T04:19:51;4.20;99.90
44565;DHT22;30275;51.822;-0.326;2023-03-03T04:22:16;4.00;99.90
44565;DHT22;30275;51.822;-0.326;2023-03-03T04:24:42;4.10;99.90
44565;DHT22;30275;51.822;-0.326;2023-03-03T04:27:07;4.10;99.90
44565;DHT22;30275;51.822;-0.326;2023-03-03T04:29:34;4.10;99.90
44565;DHT22;30275;51.822;-0.326;2023-03-03T04:32:00;4.00;99.90
44565;DHT22;30275;51.822;-0.326;2023-03-03T04:34:26;3.90;99.90
44565;DHT22;30275;51.822;-0.326;2023-03-03T04:36:51;3.90;99.90
44565;DHT22;30275;51.822;-0.326;2023-03-03T04:39:17;4.00;99.90
44565;DHT22;30275;51.822;-0.326;2023-03-03T04:41:43;4.10;99.90
44565;DHT22;30275;51.822;-0.326;2023-03-03T04:44:08;4.00;99.90
44565;DHT22;30275;51.822;-0.326;2023-03-03T04:46:34;4.10;99.90
44565;DHT22;30275;51.822;-0.326;2023-03-03T04:48:59;4.10;99.90
44565;DHT22;30275;51.822;-0.326;2023-03-03T04:51:25;4.00;99.90
44565;DHT22;30275;51.822;-0.326;2023-03-03T04:53:51;4.00;99.90
44565;DHT22;30275;51.822;-0.326;2023-03-03T04:56:16;4.00;99.90
44565;DHT22;30275;51.822;-0.326;2023-03-03T04:58:42;3.90;99.90
44565;DHT22;30275;51.822;-0.326;2023-03-03T05:01:13;4.00;99.90
44565;DHT22;30275;51.822;-0.326;2023-03-03T05:03:39;4.10;99.90
44565;DHT22;30275;51.822;-0.326;2023-03-03T05:06:06;4.10;99.90
44565;DHT22;30275;51.822;-0.326;2023-03-03T05:08:31;4.10;99.90
44565;DHT22;30275;51.822;-0.326;2023-03-03T05:10:57;4.10;99.90
44565;DHT22;30275;51.822;-0.326;2023-03-03T05:13:24;4.00;99.90
44565;DHT22;30275;51.822;-0.326;2023-03-03T05:15:52;4.00;99.90
44565;DHT22;30275;51.822;-0.326;2023-03-03T05:18:20;3.90;99.90
44565;DHT22;30275;51.822;-0.326;2023-03-03T05:20:46;3.90;99.90
44565;DHT22;30275;51.822;-0.326;2023-03-03T05:23:12;4.00;99.90
44565;DHT22;30275;51.822;-0.326;2023-03-03T05:25:40;4.00;99.90
44565;DHT22;30275;51.822;-0.326;2023-03-03T05:28:06;4.10;99.90
44565;DHT22;30275;51.822;-0.326;2023-03-03T05:30:32;3.90;99.90
44565;DHT22;30275;51.822;-0.326;2023-03-03T05:32:58;4.00;99.90
44565;DHT22;30275;51.822;-0.326;2023-03-03T05:35:24;4.10;99.90
44565;DHT22;30275;51.822;-0.326;2023-03-03T05:37:50;4.00;99.90
44565;DHT22;30275;51.822;-0.326;2023-03-03T05:40:17;4.10;99.90
44565;DHT22;30275;51.822;-0.326;2023-03-03T05:42:43;4.00;99.90
44565;DHT22;30275;51.822;-0.326;2023-03-03T05:45:09;4.10;99.90
44565;DHT22;30275;51.822;-0.326;2023-03-03T05:47:35;4.10;99.90
44565;DHT22;30275;51.822;-0.326;2023-03-03T05:50:01;4.20;99.90
44565;DHT22;30275;51.822;-0.326;2023-03-03T05:52:26;4.20;99.90
44565;DHT22;30275;51.822;-0.326;2023-03-03T05:54:52;4.30;99.90
44565;DHT22;30275;51.822;-0.326;2023-03-03T05:57:17;4.40;99.90
44565;DHT22;30275;51.822;-0.326;2023-03-03T05:59:43;4.60;99.90
44565;DHT22;30275;51.822;-0.326;2023-03-03T06:02:08;4.60;99.90
44565;DHT22;30275;51.822;-0.326;2023-03-03T06:04:34;4.60;99.90
44565;DHT22;30275;51.822;-0.326;2023-03-03T06:06:59;4.60;99.90
44565;DHT22;30275;51.822;-0.326;2023-03-03T06:09:25;4.60;99.90
44565;DHT22;30275;51.822;-0.326;2023-03-03T06:11:51;4.50;99.90
44565;DHT22;30275;51.822;-0.326;2023-03-03T06:14:18;4.50;99.90
44565;DHT22;30275;51.822;-0.326;2023-03-03T06:16:48;4.50;99.90
44565;DHT22;30275;51.822;-0.326;2023-03-03T06:19:14;4.60;99.90
44565;DHT22;30275;51.822;-0.326;2023-03-03T06:21:40;4.50;99.90
44565;DHT22;30275;51.822;-0.326;2023-03-03T06:24:06;4.40;99.90
44565;DHT22;30275;51.822;-0.326;2023-03-03T06:26:32;4.40;99.90
44565;DHT22;30275;51.822;-0.326;2023-03-03T06:28:58;4.40;99.90
44565;DHT22;30275;51.822;-0.326;2023-03-03T06:31:24;4.40;99.90
44565;DHT22;30275;51.822;-0.326;2023-03-03T06:33:50;4.20;99.90
44565;DHT22;30275;51.822;-0.326;2023-03-03T06:36:16;4.30;99.90
44565;DHT22;30275;51.822;-0.326;2023-03-03T06:38:42;4.30;99.90
44565;DHT22;30275;51.822;-0.326;2023-03-03T06:41:08;4.30;99.90
44565;DHT22;30275;51.822;-0.326;2023-03-03T06:43:34;4.40;99.90
44565;DHT22;30275;51.822;-0.326;2023-03-03T06:46:00;4.40;99.90
44565;DHT22;30275;51.822;-0.326;2023-03-03T06:48:26;4.30;99.90
44565;DHT22;30275;51.822;-0.326;2023-03-03T06:50:52;4.30;99.90
44565;DHT22;30275;51.822;-0.326;2023-03-03T06:53:18;4.40;99.90
44565;DHT22;30275;51.822;-0.326;2023-03-03T06:55:44;4.40;99.90
44565;DHT22;30275;51.822;-0.326;2023-03-03T06:58:16;4.30;99.90
44565;DHT22;30275;51.822;-0.326;2023-03-03T07:00:44;4.30;99.90
44565;DHT22;30275;51.822;-0.326;2023-03-03T07:03:16;4.20;99.90
44565;DHT22;30275;51.822;-0.326;2023-03-03T07:05:42;4.20;99.90
44565;DHT22;30275;51.822;-0.326;2023-03-03T07:08:16;4.20;99.90
44565;DHT22;30275;51.822;-0.326;2023-03-03T07:10:43;4.20;99.90
44565;DHT22;30275;51.822;-0.326;2023-03-03T07:13:25;4.30;99.90
44565;DHT22;30275;51.822;-0.326;2023-03-03T07:15:55;4.30;99.90
44565;DHT22;30275;51.822;-0.326;2023-03-03T07:20:58;4.40;99.90
44565;DHT22;30275;51.822;-0.326;2023-03-03T07:23:37;4.30;99.90
44565;DHT22;30275;51.822;-0.326;2023-03-03T07:31:40;4.50;99.90
44565;DHT22;30275;51.822;-0.326;2023-03-03T07:34:30;4.40;99.90
44565;DHT22;30275;51.822;-0.326;2023-03-03T07:37:12;4.50;99.90
44565;DHT22;30275;51.822;-0.326;2023-03-03T07:39:46;4.40;99.90
44565;DHT22;30275;51.822;-0.326;2023-03-03T07:42:25;4.40;99.90
44565;DHT22;30275;51.822;-0.326;2023-03-03T07:44:54;4.60;99.90
44565;DHT22;30275;51.822;-0.326;2023-03-03T07:49:50;4.60;99.90
44565;DHT22;30275;51.822;-0.326;2023-03-03T07:53:01;4.50;99.90
44565;DHT22;30275;51.822;-0.326;2023-03-03T07:57:52;4.70;99.90
44565;DHT22;30275;51.822;-0.326;2023-03-03T08:02:47;4.80;99.90
44565;DHT22;30275;51.822;-0.326;2023-03-03T08:08:01;4.80;99.90
44565;DHT22;30275;51.822;-0.326;2023-03-03T08:10:51;4.90;99.90
44565;DHT22;30275;51.822;-0.326;2023-03-03T08:13:24;4.90;99.90
44565;DHT22;30275;51.822;-0.326;2023-03-03T08:16:17;4.80;99.90
44565;DHT22;30275;51.822;-0.326;2023-03-03T08:18:48;4.80;99.90
44565;DHT22;30275;51.822;-0.326;2023-03-03T08:21:24;4.90;99.90
44565;DHT22;30275;51.822;-0.326;2023-03-03T08:23:51;4.90;99.90
44565;DHT22;30275;51.822;-0.326;2023-03-03T08:26:18;4.90;99.90
44565;DHT22;30275;51.822;-0.326;2023-03-03T08:28:45;5.00;99.90
44565;DHT22;30275;51.822;-0.326;2023-03-03T08:31:11;4.90;99.90
44565;DHT22;30275;51.822;-0.326;2023-03-03T08:33:37;4.90;99.90
44565;DHT22;30275;51.822;-0.326;2023-03-03T08:36:04;5.00;99.90
44565;DHT22;30275;51.822;-0.326;2023-03-03T08:38:30;5.00;99.90
44565;DHT22;30275;51.822;-0.326;2023-03-03T08:40:55;5.00;99.90
44565;DHT22;30275;51.822;-0.326;2023-03-03T08:43:21;5.00;99.90
44565;DHT22;30275;51.822;-0.326;2023-03-03T08:45:51;5.10;99.90
44565;DHT22;30275;51.822;-0.326;2023-03-03T08:48:18;5.10;99.90
44565;DHT22;30275;51.822;-0.326;2023-03-03T08:50:44;5.20;99.90
44565;DHT22;30275;51.822;-0.326;2023-03-03T08:53:11;5.20;99.90
44565;DHT22;30275;51.822;-0.326;2023-03-03T08:55:38;5.20;99.90
44565;DHT22;30275;51.822;-0.326;2023-03-03T08:58:03;5.30;99.90
44565;DHT22;30275;51.822;-0.326;2023-03-03T09:00:29;5.20;99.90
44565;DHT22;30275;51.822;-0.326;2023-03-03T09:02:55;5.20;99.90
44565;DHT22;30275;51.822;-0.326;2023-03-03T09:05:21;5.20;99.90
44565;DHT22;30275;51.822;-0.326;2023-03-03T09:07:48;5.20;99.90
44565;DHT22;30275;51.822;-0.326;2023-03-03T09:10:17;5.20;99.90
44565;DHT22;30275;51.822;-0.326;2023-03-03T09:12:47;5.30;99.90
44565;DHT22;30275;51.822;-0.326;2023-03-03T09:15:20;5.40;99.90
44565;DHT22;30275;51.822;-0.326;2023-03-03T09:17:47;5.40;99.90
44565;DHT22;30275;51.822;-0.326;2023-03-03T09:22:43;5.40;99.90
44565;DHT22;30275;51.822;-0.326;2023-03-03T09:25:32;5.50;99.90
44565;DHT22;30275;51.822;-0.326;2023-03-03T09:27:59;5.50;99.90
44565;DHT22;30275;51.822;-0.326;2023-03-03T09:32:51;5.50;99.90
44565;DHT22;30275;51.822;-0.326;2023-03-03T09:35:37;5.50;99.90
44565;DHT22;30275;51.822;-0.326;2023-03-03T09:38:29;5.60;99.90
44565;DHT22;30275;51.822;-0.326;2023-03-03T09:49:20;7.40;99.90
44565;DHT22;30275;51.822;-0.326;2023-03-03T09:57:10;6.90;99.90
44565;DHT22;30275;51.822;-0.326;2023-03-03T09:59:50;6.60;99.90
44565;DHT22;30275;51.822;-0.326;2023-03-03T10:10:48;6.00;99.90
44565;DHT22;30275;51.822;-0.326;2023-03-03T10:24:50;5.80;99.90
44565;DHT22;30275;51.822;-0.326;2023-03-03T10:39:02;6.40;99.90
44565;DHT22;30275;51.822;-0.326;2023-03-03T11:06:25;6.30;99.90
44565;DHT22;30275;51.822;-0.326;2023-03-03T11:09:01;6.30;99.90
44565;DHT22;30275;51.822;-0.326;2023-03-03T11:11:44;6.50;99.90
44565;DHT22;30275;51.822;-0.326;2023-03-03T11:17:25;6.50;99.90
44565;DHT22;30275;51.822;-0.326;2023-03-03T11:20:03;6.40;99.90
44565;DHT22;30275;51.822;-0.326;2023-03-03T11:22:41;6.30;99.90
44565;DHT22;30275;51.822;-0.326;2023-03-03T11:28:05;6.40;99.90
44565;DHT22;30275;51.822;-0.326;2023-03-03T11:30:50;6.10;99.90
44565;DHT22;30275;51.822;-0.326;2023-03-03T11:33:21;6.30;99.90
44565;DHT22;30275;51.822;-0.326;2023-03-03T11:36:09;6.30;99.90
44565;DHT22;30275;51.822;-0.326;2023-03-03T11:38:56;6.30;99.90
44565;DHT22;30275;51.822;-0.326;2023-03-03T11:44:21;6.40;99.90
44565;DHT22;30275;51.822;-0.326;2023-03-03T11:46:58;6.60;99.90
44565;DHT22;30275;51.822;-0.326;2023-03-03T11:49:37;6.50;99.90
44565;DHT22;30275;51.822;-0.326;2023-03-03T12:03:33;6.10;99.90
44565;DHT22;30275;51.822;-0.326;2023-03-03T12:09:35;5.80;99.90
44565;DHT22;30275;51.822;-0.326;2023-03-03T12:12:05;5.80;99.90
44565;DHT22;30275;51.822;-0.326;2023-03-03T12:23:38;6.90;99.90
44565;DHT22;30275;51.822;-0.326;2023-03-03T12:26:15;7.10;99.90
44565;DHT22;30275;51.822;-0.326;2023-03-03T12:28:51;7.20;99.90
44565;DHT22;30275;51.822;-0.326;2023-03-03T12:32:14;7.30;99.90
44565;DHT22;30275;51.822;-0.326;2023-03-03T12:34:33;7.20;99.90
44565;DHT22;30275;51.822;-0.326;2023-03-03T12:40:09;7.10;99.90
44565;DHT22;30275;51.822;-0.326;2023-03-03T12:54:06;7.30;99.90
44565;DHT22;30275;51.822;-0.326;2023-03-03T12:59:10;7.30;99.90
44565;DHT22;30275;51.822;-0.326;2023-03-03T13:07:42;7.50;99.90
44565;DHT22;30275;51.822;-0.326;2023-03-03T13:10:26;7.50;99.90
44565;DHT22;30275;51.822;-0.326;2023-03-03T13:15:43;7.60;99.90
44565;DHT22;30275;51.822;-0.326;2023-03-03T13:18:23;7.60;99.90
44565;DHT22;30275;51.822;-0.326;2023-03-03T13:20:56;7.50;99.90
44565;DHT22;30275;51.822;-0.326;2023-03-03T13:26:26;7.20;99.90
44565;DHT22;30275;51.822;-0.326;2023-03-03T13:29:08;6.90;99.90
44565;DHT22;30275;51.822;-0.326;2023-03-03T13:31:42;6.60;99.90
44565;DHT22;30275;51.822;-0.326;2023-03-03T13:34:22;6.50;99.90
44565;DHT22;30275;51.822;-0.326;2023-03-03T13:36:58;6.40;99.90
44565;DHT22;30275;51.822;-0.326;2023-03-03T13:39:33;6.20;99.90
44565;DHT22;30275;51.822;-0.326;2023-03-03T13:42:31;6.20;99.90
44565;DHT22;30275;51.822;-0.326;2023-03-03T13:44:59;6.10;99.90
44565;DHT22;30275;51.822;-0.326;2023-03-03T13:47:34;6.10;99.90
44565;DHT22;30275;51.822;-0.326;2023-03-03T13:50:21;6.10;99.90
44565;DHT22;30275;51.822;-0.326;2023-03-03T13:55:35;6.40;99.90
44565;DHT22;30275;51.822;-0.326;2023-03-03T14:05:43;6.50;99.90
44565;DHT22;30275;51.822;-0.326;2023-03-03T14:11:18;6.40;99.90
44565;DHT22;30275;51.822;-0.326;2023-03-03T14:16:54;6.60;99.90
44565;DHT22;30275;51.822;-0.326;2023-03-03T14:19:37;6.50;99.90
44565;DHT22;30275;51.822;-0.326;2023-03-03T14:25:13;6.30;99.90
44565;DHT22;30275;51.822;-0.326;2023-03-03T14:30:36;6.30;99.90
44565;DHT22;30275;51.822;-0.326;2023-03-03T14:46:37;6.70;99.90
44565;DHT22;30275;51.822;-0.326;2023-03-03T14:49:29;6.70;99.90
44565;DHT22;30275;51.822;-0.326;2023-03-03T14:52:02;6.60;99.90
44565;DHT22;30275;51.822;-0.326;2023-03-03T14:54:36;6.60;99.90
44565;DHT22;30275;51.822;-0.326;2023-03-03T14:57:08;6.70;99.90
44565;DHT22;30275;51.822;-0.326;2023-03-03T14:59:36;6.90;99.90
44565;DHT22;30275;51.822;-0.326;2023-03-03T15:04:48;6.90;99.90
44565;DHT22;30275;51.822;-0.326;2023-03-03T15:07:33;7.00;99.90
44565;DHT22;30275;51.822;-0.326;2023-03-03T15:10:01;7.10;99.90
44565;DHT22;30275;51.822;-0.326;2023-03-03T15:12:41;7.10;99.90
44565;DHT22;30275;51.822;-0.326;2023-03-03T15:15:20;7.10;99.90
44565;DHT22;30275;51.822;-0.326;2023-03-03T15:18:00;6.90;99.90
44565;DHT22;30275;51.822;-0.326;2023-03-03T15:20:39;6.40;99.90
44565;DHT22;30275;51.822;-0.326;2023-03-03T15:25:51;6.30;99.90
44565;DHT22;30275;51.822;-0.326;2023-03-03T15:34:19;6.20;99.90
44565;DHT22;30275;51.822;-0.326;2023-03-03T15:42:23;6.20;99.90
44565;DHT22;30275;51.822;-0.326;2023-03-03T15:45:10;6.20;99.90
44565;DHT22;30275;51.822;-0.326;2023-03-03T15:48:05;6.10;99.90
44565;DHT22;30275;51.822;-0.326;2023-03-03T16:01:50;6.60;99.90
44565;DHT22;30275;51.822;-0.326;2023-03-03T16:04:20;6.70;99.90
44565;DHT22;30275;51.822;-0.326;2023-03-03T16:17:37;6.50;99.90
44565;DHT22;30275;51.822;-0.326;2023-03-03T16:20:13;6.50;99.90
44565;DHT22;30275;51.822;-0.326;2023-03-03T16:36:20;6.60;99.90
44565;DHT22;30275;51.822;-0.326;2023-03-03T16:46:46;6.50;99.90
44565;DHT22;30275;51.822;-0.326;2023-03-03T16:52:06;6.60;99.90
44565;DHT22;30275;51.822;-0.326;2023-03-03T16:54:44;6.60;99.90
44565;DHT22;30275;51.822;-0.326;2023-03-03T17:05:26;6.70;99.90
44565;DHT22;30275;51.822;-0.326;2023-03-03T17:13:45;6.60;99.90
44565;DHT22;30275;51.822;-0.326;2023-03-03T17:19:14;6.50;99.90
44565;DHT22;30275;51.822;-0.326;2023-03-03T17:21:58;6.40;99.90
44565;DHT22;30275;51.822;-0.326;2023-03-03T17:30:25;6.40;99.90
44565;DHT22;30275;51.822;-0.326;2023-03-03T17:36:06;6.30;99.90
44565;DHT22;30275;51.822;-0.326;2023-03-03T17:41:24;6.30;99.90
44565;DHT22;30275;51.822;-0.326;2023-03-03T17:46:48;6.20;99.90
44565;DHT22;30275;51.822;-0.326;2023-03-03T17:52:40;6.10;99.90
44565;DHT22;30275;51.822;-0.326;2023-03-03T17:58:12;5.90;99.90
44565;DHT22;30275;51.822;-0.326;2023-03-03T18:06:54;5.70;99.90
44565;DHT22;30275;51.822;-0.326;2023-03-03T18:15:35;5.70;99.90
44565;DHT22;30275;51.822;-0.326;2023-03-03T18:20:42;5.60;99.90
44565;DHT22;30275;51.822;-0.326;2023-03-03T18:23:42;5.60;99.90
44565;DHT22;30275;51.822;-0.326;2023-03-03T18:37:02;5.50;99.90
44565;DHT22;30275;51.822;-0.326;2023-03-03T18:39:45;5.50;99.90
44565;DHT22;30275;51.822;-0.326;2023-03-03T18:44:37;5.50;99.90
44565;DHT22;30275;51.822;-0.326;2023-03-03T18:47:03;5.40;99.90
44565;DHT22;30275;51.822;-0.326;2023-03-03T18:52:22;5.40;99.90
44565;DHT22;30275;51.822;-0.326;2023-03-03T18:57:34;5.40;99.90
44565;DHT22;30275;51.822;-0.326;2023-03-03T19:00:23;5.40;99.90
44565;DHT22;30275;51.822;-0.326;2023-03-03T19:02:54;5.30;99.90
44565;DHT22;30275;51.822;-0.326;2023-03-03T19:05:23;5.40;99.90
44565;DHT22;30275;51.822;-0.326;2023-03-03T19:08:21;5.40;99.90
44565;DHT22;30275;51.822;-0.326;2023-03-03T19:11:01;5.40;99.90
44565;DHT22;30275;51.822;-0.326;2023-03-03T19:18:35;5.50;99.90
44565;DHT22;30275;51.822;-0.326;2023-03-03T19:21:24;5.40;99.90
44565;DHT22;30275;51.822;-0.326;2023-03-03T19:24:04;5.40;99.90
44565;DHT22;30275;51.822;-0.326;2023-03-03T19:29:56;5.40;99.90
44565;DHT22;30275;51.822;-0.326;2023-03-03T19:32:39;5.40;99.90
44565;DHT22;30275;51.822;-0.326;2023-03-03T19:43:37;5.60;99.90
44565;DHT22;30275;51.822;-0.326;2023-03-03T19:49:15;5.50;99.90
44565;DHT22;30275;51.822;-0.326;2023-03-03T19:52:06;5.50;99.90
44565;DHT22;30275;51.822;-0.326;2023-03-03T19:57:05;5.40;99.90
44565;DHT22;30275;51.822;-0.326;2023-03-03T19:59:55;5.40;99.90
44565;DHT22;30275;51.822;-0.326;2023-03-03T20:08:34;5.40;99.90
44565;DHT22;30275;51.822;-0.326;2023-03-03T20:11:32;5.50;99.90
44565;DHT22;30275;51.822;-0.326;2023-03-03T20:14:33;5.50;99.90
44565;DHT22;30275;51.822;-0.326;2023-03-03T20:17:28;5.50;99.90
44565;DHT22;30275;51.822;-0.326;2023-03-03T20:37:36;5.40;99.90
44565;DHT22;30275;51.822;-0.326;2023-03-03T20:40:32;5.40;99.90
44565;DHT22;30275;51.822;-0.326;2023-03-03T20:46:21;5.40;99.90
44565;DHT22;30275;51.822;-0.326;2023-03-03T21:05:21;5.30;99.90
44565;DHT22;30275;51.822;-0.326;2023-03-03T21:07:54;5.30;99.90
44565;DHT22;30275;51.822;-0.326;2023-03-03T21:10:22;5.30;99.90
44565;DHT22;30275;51.822;-0.326;2023-03-03T21:12:53;5.30;99.90
44565;DHT22;30275;51.822;-0.326;2023-03-03T21:17:50;5.30;99.90
44565;DHT22;30275;51.822;-0.326;2023-03-03T21:20:21;5.30;99.90
44565;DHT22;30275;51.822;-0.326;2023-03-03T21:22:47;5.30;99.90
44565;DHT22;30275;51.822;-0.326;2023-03-03T21:31:16;5.30;99.90
44565;DHT22;30275;51.822;-0.326;2023-03-03T21:33:46;5.30;99.90
44565;DHT22;30275;51.822;-0.326;2023-03-03T21:36:22;5.30;99.90
44565;DHT22;30275;51.822;-0.326;2023-03-03T21:38:50;5.30;99.90
44565;DHT22;30275;51.822;-0.326;2023-03-03T21:41:17;5.30;99.90
44565;DHT22;30275;51.822;-0.326;2023-03-03T21:43:48;5.30;99.90
44565;DHT22;30275;51.822;-0.326;2023-03-03T21:46:19;5.30;99.90
44565;DHT22;30275;51.822;-0.326;2023-03-03T21:48:45;5.30;99.90
44565;DHT22;30275;51.822;-0.326;2023-03-03T21:51:10;5.30;99.90
44565;DHT22;30275;51.822;-0.326;2023-03-03T21:53:42;5.30;99.90
44565;DHT22;30275;51.822;-0.326;2023-03-03T21:56:09;5.20;99.90
44565;DHT22;30275;51.822;-0.326;2023-03-03T21:58:35;5.30;99.90
44565;DHT22;30275;51.822;-0.326;2023-03-03T22:01:03;5.30;99.90
44565;DHT22;30275;51.822;-0.326;2023-03-03T22:03:29;5.30;99.90
44565;DHT22;30275;51.822;-0.326;2023-03-03T22:05:54;5.30;99.90
44565;DHT22;30275;51.822;-0.326;2023-03-03T22:08:20;5.30;99.90
44565;DHT22;30275;51.822;-0.326;2023-03-03T22:10:51;5.30;99.90
44565;DHT22;30275;51.822;-0.326;2023-03-03T22:13:24;5.10;99.90
44565;DHT22;30275;51.822;-0.326;2023-03-03T22:15:50;5.20;99.90
44565;DHT22;30275;51.822;-0.326;2023-03-03T22:18:17;5.20;99.90
44565;DHT22;30275;51.822;-0.326;2023-03-03T22:20:44;5.20;99.90
44565;DHT22;30275;51.822;-0.326;2023-03-03T22:23:10;5.30;99.90
44565;DHT22;30275;51.822;-0.326;2023-03-03T22:25:36;5.20;99.90
44565;DHT22;30275;51.822;-0.326;2023-03-03T22:28:02;5.20;99.90
44565;DHT22;30275;51.822;-0.326;2023-03-03T22:30:27;5.20;99.90
44565;DHT22;30275;51.822;-0.326;2023-03-03T22:32:53;5.20;99.90
44565;DHT22;30275;51.822;-0.326;2023-03-03T22:35:20;5.20;99.90
44565;DHT22;30275;51.822;-0.326;2023-03-03T22:37:45;5.10;99.90
44565;DHT22;30275;51.822;-0.326;2023-03-03T22:40:12;5.20;99.90
44565;DHT22;30275;51.822;-0.326;2023-03-03T22:42:37;5.20;99.90
44565;DHT22;30275;51.822;-0.326;2023-03-03T22:45:04;5.20;99.90
44565;DHT22;30275;51.822;-0.326;2023-03-03T22:47:29;5.20;99.90
44565;DHT22;30275;51.822;-0.326;2023-03-03T22:49:58;5.10;99.90